sensor_id;sensor_type;location;lat;lon;timestamp;pressure;altitude;pressure_sealevel;temperature;humidity
71559;BME280;59382;43.852;25.952;2023-07-20T00:00:35;100652.41;;;29.45;42.77
71559;BME280;59382;43.852;25.952;2023-07-20T00:03:11;100663.53;;;29.45;42.80
71559;BME280;59382;43.852;25.952;2023-07-20T00:05:43;100657.78;;;29.50;42.41
71559;BME280;59382;43.852;25.952;2023-07-20T00:08:09;100664.09;;;29.59;42.18
71559;BME280;59382;43.852;25.952;2023-07-20T00:10:34;100629.56;;;29.60;42.10
71559;BME280;59382;43.852;25.952;2023-07-20T00:12:59;100645.13;;;29.61;42.06
71559;BME280;59382;43.852;25.952;2023-07-20T00:15:25;100657.22;;;29.65;41.85
71559;BME280;59382;43.852;25.952;2023-07-20T00:17:50;100657.72;;;29.58;41.85
71559;BME280;59382;43.852;25.952;2023-07-20T00:20:16;100663.53;;;29.45;42.17
71559;BME280;59382;43.852;25.952;2023-07-20T00:22:43;100674.38;;;29.38;42.73
71559;BME280;59382;43.852;25.952;2023-07-20T00:25:09;100675.72;;;29.32;42.84
71559;BME280;59382;43.852;25.952;2023-07-20T00:27:36;100667.59;;;29.27;42.86
71559;BME280;59382;43.852;25.952;2023-07-20T00:30:03;100660.63;;;29.21;43.30
71559;BME280;59382;43.852;25.952;2023-07-20T00:32:29;100659.97;;;29.15;43.33
71559;BME280;59382;43.852;25.952;2023-07-20T00:34:55;100631.75;;;29.05;43.50
71559;BME280;59382;43.852;25.952;2023-07-20T00:37:20;100627.50;;;28.99;43.85
71559;BME280;59382;43.852;25.952;2023-07-20T00:39:46;100627.22;;;28.92;44.56
71559;BME280;59382;43.852;25.952;2023-07-20T00:42:11;100620.44;;;28.81;44.75
71559;BME280;59382;43.852;25.952;2023-07-20T00:44:37;100606.75;;;28.76;45.09
71559;BME280;59382;43.852;25.952;2023-07-20T00:47:02;100596.38;;;28.55;45.59
71559;BME280;59382;43.852;25.952;2023-07-20T00:49:28;100585.25;;;28.55;45.33
71559;BME280;59382;43.852;25.952;2023-07-20T00:51:53;100590.34;;;28.53;45.47
71559;BME280;59382;43.852;25.952;2023-07-20T00:54:19;100589.03;;;28.59;45.38
71559;BME280;59382;43.852;25.952;2023-07-20T00:56:45;100590.78;;;28.64;45.31
71559;BME280;59382;43.852;25.952;2023-07-20T00:59:11;100568.59;;;28.55;45.20
71559;BME280;59382;43.852;25.952;2023-07-20T01:01:36;100575.13;;;28.59;45.60
71559;BME280;59382;43.852;25.952;2023-07-20T01:04:02;100567.16;;;28.49;45.79
71559;BME280;59382;43.852;25.952;2023-07-20T01:06:49;100572.06;;;28.52;45.71
71559;BME280;59382;43.852;25.952;2023-07-20T01:09:26;100545.66;;;28.46;45.64
71559;BME280;59382;43.852;25.952;2023-07-20T01:14:19;100544.38;;;28.64;45.32
71559;BME280;59382;43.852;25.952;2023-07-20T01:16:45;100523.28;;;28.72;45.08
71559;BME280;59382;43.852;25.952;2023-07-20T01:19:13;100517.34;;;28.82;45.09
71559;BME280;59382;43.852;25.952;2023-07-20T01:33:09;100304.19;;;29.12;44.45
71559;BME280;59382;43.852;25.952;2023-07-20T01:35:36;100312.75;;;29.07;44.87
71559;BME280;59382;43.852;25.952;2023-07-20T01:38:03;100341.69;;;29.06;44.65
71559;BME280;59382;43.852;25.952;2023-07-20T01:40:29;100358.13;;;29.11;44.84
71559;BME280;59382;43.852;25.952;2023-07-20T01:42:55;100344.47;;;29.06;44.89
71559;BME280;59382;43.852;25.952;2023-07-20T01:45:20;100342.13;;;29.08;44.74
71559;BME280;59382;43.852;25.952;2023-07-20T01:47:46;100358.25;;;29.14;44.40
71559;BME280;59382;43.852;25.952;2023-07-20T01:50:11;100464.91;;;29.22;44.11
71559;BME280;59382;43.852;25.952;2023-07-20T01:52:37;100464.53;;;29.11;44.73
71559;BME280;59382;43.852;25.952;2023-07-20T01:55:03;100463.03;;;29.14;45.76
71559;BME280;59382;43.852;25.952;2023-07-20T01:57:30;100487.56;;;28.91;46.04
71559;BME280;59382;43.852;25.952;2023-07-20T01:59:55;100482.88;;;28.83;46.39
71559;BME280;59382;43.852;25.952;2023-07-20T02:02:25;100484.03;;;28.82;47.03
71559;BME280;59382;43.852;25.952;2023-07-20T02:04:51;100501.53;;;28.74;47.10
71559;BME280;59382;43.852;25.952;2023-07-20T02:07:17;100496.19;;;28.69;47.65
71559;BME280;59382;43.852;25.952;2023-07-20T02:09:42;100510.41;;;28.67;47.48
71559;BME280;59382;43.852;25.952;2023-07-20T02:12:08;100520.56;;;28.63;47.79
71559;BME280;59382;43.852;25.952;2023-07-20T02:14:33;100514.41;;;28.49;47.99
71559;BME280;59382;43.852;25.952;2023-07-20T02:16:59;100509.91;;;28.36;48.42
71559;BME280;59382;43.852;25.952;2023-07-20T02:19:25;100498.50;;;28.29;48.47
71559;BME280;59382;43.852;25.952;2023-07-20T02:21:52;100476.38;;;28.12;48.48
71559;BME280;59382;43.852;25.952;2023-07-20T02:24:17;100508.88;;;28.12;48.53
71559;BME280;59382;43.852;25.952;2023-07-20T02:26:43;100483.34;;;27.81;48.73
71559;BME280;59382;43.852;25.952;2023-07-20T02:29:09;100509.09;;;27.81;48.96
71559;BME280;59382;43.852;25.952;2023-07-20T02:31:39;100507.19;;;27.73;49.51
71559;BME280;59382;43.852;25.952;2023-07-20T02:34:06;100493.34;;;27.56;49.82
71559;BME280;59382;43.852;25.952;2023-07-20T02:36:32;100512.25;;;27.46;49.91
71559;BME280;59382;43.852;25.952;2023-07-20T02:39:00;100515.38;;;27.44;50.15
71559;BME280;59382;43.852;25.952;2023-07-20T02:41:27;100500.53;;;27.49;49.94
71559;BME280;59382;43.852;25.952;2023-07-20T02:43:52;100520.53;;;27.71;49.94
71559;BME280;59382;43.852;25.952;2023-07-20T02:46:18;100521.84;;;27.82;49.63
71559;BME280;59382;43.852;25.952;2023-07-20T02:48:44;100517.28;;;27.86;49.23
71559;BME280;59382;43.852;25.952;2023-07-20T02:51:09;100533.09;;;27.94;49.04
71559;BME280;59382;43.852;25.952;2023-07-20T02:53:36;100542.88;;;27.92;48.97
71559;BME280;59382;43.852;25.952;2023-07-20T02:56:01;100525.44;;;27.74;48.91
71559;BME280;59382;43.852;25.952;2023-07-20T02:58:27;100511.25;;;27.59;49.28
71559;BME280;59382;43.852;25.952;2023-07-20T03:00:52;100520.59;;;27.46;49.89
71559;BME280;59382;43.852;25.952;2023-07-20T03:03:18;100530.53;;;27.30;50.47
71559;BME280;59382;43.852;25.952;2023-07-20T03:05:43;100510.16;;;27.34;50.38
71559;BME280;59382;43.852;25.952;2023-07-20T03:08:09;100515.53;;;27.48;50.29
71559;BME280;59382;43.852;25.952;2023-07-20T03:10:40;100500.53;;;27.49;49.81
71559;BME280;59382;43.852;25.952;2023-07-20T03:13:07;100518.75;;;27.67;49.75
71559;BME280;59382;43.852;25.952;2023-07-20T03:15:32;100509.28;;;27.68;49.71
71559;BME280;59382;43.852;25.952;2023-07-20T03:17:58;100513.69;;;27.60;49.82
71559;BME280;59382;43.852;25.952;2023-07-20T03:20:24;100526.28;;;27.58;50.17
71559;BME280;59382;43.852;25.952;2023-07-20T03:22:49;100530.38;;;27.43;50.35
71559;BME280;59382;43.852;25.952;2023-07-20T03:25:15;100536.41;;;27.28;50.79
71559;BME280;59382;43.852;25.952;2023-07-20T03:27:40;100522.19;;;27.04;51.68
71559;BME280;59382;43.852;25.952;2023-07-20T03:30:06;100538.00;;;27.04;51.56
71559;BME280;59382;43.852;25.952;2023-07-20T03:32:32;100525.13;;;26.99;51.57
